sensor_id;sensor_type;location;lat;lon;timestamp;P1;durP1;ratioP1;P2;durP2;ratioP2
29352;SDS011;16344;50.364;8.944;2022-12-07T00:01:23;34.50;;;17.70;;
29352;SDS011;16344;50.364;8.944;2022-12-07T00:03:51;32.80;;;18.48;;
29352;SDS011;16344;50.364;8.944;2022-12-07T00:06:18;36.08;;;18.42;;
29352;SDS011;16344;50.364;8.944;2022-12-07T00:08:44;36.60;;;17.88;;
29352;SDS011;16344;50.364;8.944;2022-12-07T00:11:12;37.53;;;19.48;;
29352;SDS011;16344;50.364;8.944;2022-12-07T00:13:42;35.25;;;17.63;;
29352;SDS011;16344;50.364;8.944;2022-12-07T00:16:09;36.15;;;18.50;;
29352;SDS011;16344;50.364;8.944;2022-12-07T00:18:37;37.38;;;18.67;;
29352;SDS011;16344;50.364;8.944;2022-12-07T00:21:04;41.05;;;17.60;;
29352;SDS011;16344;50.364;8.944;2022-12-07T00:23:32;36.70;;;19.70;;
29352;SDS011;16344;50.364;8.944;2022-12-07T00:26:05;39.72;;;19.83;;
29352;SDS011;16344;50.364;8.944;2022-12-07T00:28:31;43.53;;;19.23;;
29352;SDS011;16344;50.364;8.944;2022-12-07T00:31:05;41.38;;;20.92;;
29352;SDS011;16344;50.364;8.944;2022-12-07T00:33:33;34.72;;;20.17;;
29352;SDS011;16344;50.364;8.944;2022-12-07T00:35:59;38.97;;;20.83;;
29352;SDS011;16344;50.364;8.944;2022-12-07T00:38:27;44.63;;;21.05;;
29352;SDS011;16344;50.364;8.944;2022-12-07T00:40:55;42.15;;;21.10;;
29352;SDS011;16344;50.364;8.944;2022-12-07T00:43:25;36.13;;;20.70;;
29352;SDS011;16344;50.364;8.944;2022-12-07T00:45:51;41.50;;;20.67;;
29352;SDS011;16344;50.364;8.944;2022-12-07T00:48:17;48.30;;;23.38;;
29352;SDS011;16344;50.364;8.944;2022-12-07T00:50:43;44.78;;;22.38;;
29352;SDS011;16344;50.364;8.944;2022-12-07T00:53:09;52.38;;;24.58;;
29352;SDS011;16344;50.364;8.944;2022-12-07T00:55:34;47.67;;;22.77;;
29352;SDS011;16344;50.364;8.944;2022-12-07T00:58:00;44.13;;;22.33;;
29352;SDS011;16344;50.364;8.944;2022-12-07T01:00:26;46.55;;;23.90;;
29352;SDS011;16344;50.364;8.944;2022-12-07T01:02:52;46.55;;;22.17;;
29352;SDS011;16344;50.364;8.944;2022-12-07T01:05:18;41.35;;;22.65;;
29352;SDS011;16344;50.364;8.944;2022-12-07T01:07:43;42.85;;;22.63;;
29352;SDS011;16344;50.364;8.944;2022-12-07T01:10:09;45.00;;;22.85;;
29352;SDS011;16344;50.364;8.944;2022-12-07T01:12:35;44.60;;;22.38;;
29352;SDS011;16344;50.364;8.944;2022-12-07T01:15:00;49.45;;;23.38;;
29352;SDS011;16344;50.364;8.944;2022-12-07T01:17:26;42.17;;;21.42;;
29352;SDS011;16344;50.364;8.944;2022-12-07T01:19:53;42.88;;;22.13;;
29352;SDS011;16344;50.364;8.944;2022-12-07T01:22:18;46.42;;;21.60;;
29352;SDS011;16344;50.364;8.944;2022-12-07T01:24:44;49.65;;;23.00;;
29352;SDS011;16344;50.364;8.944;2022-12-07T01:27:11;40.35;;;22.55;;
29352;SDS011;16344;50.364;8.944;2022-12-07T01:29:38;43.30;;;22.92;;
29352;SDS011;16344;50.364;8.944;2022-12-07T01:32:03;42.50;;;21.92;;
29352;SDS011;16344;50.364;8.944;2022-12-07T01:34:29;37.92;;;20.02;;
29352;SDS011;16344;50.364;8.944;2022-12-07T01:36:54;44.17;;;23.63;;
29352;SDS011;16344;50.364;8.944;2022-12-07T01:39:20;43.67;;;22.73;;
29352;SDS011;16344;50.364;8.944;2022-12-07T01:41:46;46.95;;;23.02;;
29352;SDS011;16344;50.364;8.944;2022-12-07T01:44:19;43.20;;;21.55;;
29352;SDS011;16344;50.364;8.944;2022-12-07T01:46:55;46.80;;;24.25;;
29352;SDS011;16344;50.364;8.944;2022-12-07T01:49:43;52.72;;;23.38;;
29352;SDS011;16344;50.364;8.944;2022-12-07T01:54:49;50.63;;;24.17;;
29352;SDS011;16344;50.364;8.944;2022-12-07T01:57:17;45.13;;;22.60;;
29352;SDS011;16344;50.364;8.944;2022-12-07T01:59:44;47.60;;;24.65;;
29352;SDS011;16344;50.364;8.944;2022-12-07T02:02:14;52.42;;;24.83;;
29352;SDS011;16344;50.364;8.944;2022-12-07T02:04:44;44.50;;;24.67;;
29352;SDS011;16344;50.364;8.944;2022-12-07T02:07:10;51.30;;;24.80;;
29352;SDS011;16344;50.364;8.944;2022-12-07T02:09:36;56.95;;;25.02;;
29352;SDS011;16344;50.364;8.944;2022-12-07T02:12:02;50.13;;;24.10;;
29352;SDS011;16344;50.364;8.944;2022-12-07T02:14:28;43.00;;;24.23;;
29352;SDS011;16344;50.364;8.944;2022-12-07T02:16:58;52.22;;;24.73;;
29352;SDS011;16344;50.364;8.944;2022-12-07T02:22:22;48.05;;;25.20;;
29352;SDS011;16344;50.364;8.944;2022-12-07T02:25:22;49.65;;;24.60;;
29352;SDS011;16344;50.364;8.944;2022-12-07T02:27:52;45.88;;;24.65;;
29352;SDS011;16344;50.364;8.944;2022-12-07T02:30:24;51.15;;;25.55;;
29352;SDS011;16344;50.364;8.944;2022-12-07T02:33:09;48.20;;;25.45;;
29352;SDS011;16344;50.364;8.944;2022-12-07T02:38:20;51.78;;;24.98;;
29352;SDS011;16344;50.364;8.944;2022-12-07T02:40:57;53.72;;;25.77;;
29352;SDS011;16344;50.364;8.944;2022-12-07T02:43:34;50.50;;;24.58;;
29352;SDS011;16344;50.364;8.944;2022-12-07T02:46:08;44.72;;;24.25;;
29352;SDS011;16344;50.364;8.944;2022-12-07T02:48:37;49.47;;;25.52;;
29352;SDS011;16344;50.364;8.944;2022-12-07T02:51:04;48.10;;;24.10;;
29352;SDS011;16344;50.364;8.944;2022-12-07T02:53:37;48.95;;;23.33;;
29352;SDS011;16344;50.364;8.944;2022-12-07T02:56:07;49.85;;;23.25;;
29352;SDS011;16344;50.364;8.944;2022-12-07T03:01:50;47.03;;;24.63;;
29352;SDS011;16344;50.364;8.944;2022-12-07T03:15:30;49.58;;;25.27;;
29352;SDS011;16344;50.364;8.944;2022-12-07T03:18:00;50.00;;;25.38;;
29352;SDS011;16344;50.364;8.944;2022-12-07T03:20:29;45.33;;;23.80;;
29352;SDS011;16344;50.364;8.944;2022-12-07T03:22:57;46.63;;;22.67;;
29352;SDS011;16344;50.364;8.944;2022-12-07T03:25:24;51.47;;;24.02;;
29352;SDS011;16344;50.364;8.944;2022-12-07T03:27:58;37.88;;;20.83;;
29352;SDS011;16344;50.364;8.944;2022-12-07T03:30:33;45.05;;;23.80;;
29352;SDS011;16344;50.364;8.944;2022-12-07T03:33:06;45.90;;;22.58;;
29352;SDS011;16344;50.364;8.944;2022-12-07T03:35:48;46.03;;;22.70;;
29352;SDS011;16344;50.364;8.944;2022-12-07T03:38:21;46.72;;;23.30;;
29352;SDS011;16344;50.364;8.944;2022-12-07T03:41:01;46.38;;;22.90;;
29352;SDS011;16344;50.364;8.944;2022-12-07T03:43:41;52.60;;;22.35;;
29352;SDS011;16344;50.364;8.944;2022-12-07T03:46:14;45.45;;;22.35;;
29352;SDS011;16344;50.364;8.944;2022-12-07T03:48:55;47.10;;;21.35;;
29352;SDS011;16344;50.364;8.944;2022-12-07T03:51:45;42.10;;;21.08;;
29352;SDS011;16344;50.364;8.944;2022-12-07T03:54:43;37.50;;;19.73;;
29352;SDS011;16344;50.364;8.944;2022-12-07T03:57:29;40.47;;;20.00;;
29352;SDS011;16344;50.364;8.944;2022-12-07T03:59:57;39.15;;;20.33;;
29352;SDS011;16344;50.364;8.944;2022-12-07T04:02:25;38.22;;;20.55;;
29352;SDS011;16344;50.364;8.944;2022-12-07T04:04:53;38.30;;;21.20;;
29352;SDS011;16344;50.364;8.944;2022-12-07T04:07:19;36.47;;;19.52;;
29352;SDS011;16344;50.364;8.944;2022-12-07T04:09:45;42.40;;;20.50;;
29352;SDS011;16344;50.364;8.944;2022-12-07T04:12:10;38.42;;;19.70;;
29352;SDS011;16344;50.364;8.944;2022-12-07T04:14:36;35.22;;;19.00;;
29352;SDS011;16344;50.364;8.944;2022-12-07T04:17:01;33.42;;;18.73;;
29352;SDS011;16344;50.364;8.944;2022-12-07T04:19:31;41.35;;;19.77;;
29352;SDS011;16344;50.364;8.944;2022-12-07T04:21:58;32.50;;;17.70;;
29352;SDS011;16344;50.364;8.944;2022-12-07T04:24:25;31.05;;;16.65;;
29352;SDS011;16344;50.364;8.944;2022-12-07T04:26:51;40.65;;;19.08;;
29352;SDS011;16344;50.364;8.944;2022-12-07T04:29:17;32.47;;;17.83;;
29352;SDS011;16344;50.364;8.944;2022-12-07T04:31:43;32.40;;;17.50;;
29352;SDS011;16344;50.364;8.944;2022-12-07T04:34:09;32.75;;;17.02;;
29352;SDS011;16344;50.364;8.944;2022-12-07T04:36:36;35.60;;;17.30;;
29352;SDS011;16344;50.364;8.944;2022-12-07T04:39:02;30.08;;;16.30;;
29352;SDS011;16344;50.364;8.944;2022-12-07T04:41:29;38.28;;;17.38;;
29352;SDS011;16344;50.364;8.944;2022-12-07T04:43:55;36.70;;;17.05;;
29352;SDS011;16344;50.364;8.944;2022-12-07T04:46:25;34.38;;;17.23;;
29352;SDS011;16344;50.364;8.944;2022-12-07T04:48:52;31.98;;;17.20;;
29352;SDS011;16344;50.364;8.944;2022-12-07T04:51:20;32.13;;;17.40;;
29352;SDS011;16344;50.364;8.944;2022-12-07T04:53:50;32.92;;;17.70;;
29352;SDS011;16344;50.364;8.944;2022-12-07T04:56:16;28.83;;;14.35;;
29352;SDS011;16344;50.364;8.944;2022-12-07T04:58:43;32.60;;;17.42;;
29352;SDS011;16344;50.364;8.944;2022-12-07T05:01:10;32.67;;;16.77;;
29352;SDS011;16344;50.364;8.944;2022-12-07T05:03:36;33.72;;;17.27;;
29352;SDS011;16344;50.364;8.944;2022-12-07T05:06:02;34.00;;;17.55;;
29352;SDS011;16344;50.364;8.944;2022-12-07T05:08:28;32.58;;;16.83;;
29352;SDS011;16344;50.364;8.944;2022-12-07T05:10:53;32.60;;;16.95;;
29352;SDS011;16344;50.364;8.944;2022-12-07T05:13:19;35.88;;;17.05;;
29352;SDS011;16344;50.364;8.944;2022-12-07T05:15:46;29.27;;;16.45;;
29352;SDS011;16344;50.364;8.944;2022-12-07T05:18:12;35.92;;;17.33;;
29352;SDS011;16344;50.364;8.944;2022-12-07T05:20:38;28.63;;;16.38;;
29352;SDS011;16344;50.364;8.944;2022-12-07T05:23:04;40.30;;;18.20;;
29352;SDS011;16344;50.364;8.944;2022-12-07T05:25:30;32.38;;;16.55;;
29352;SDS011;16344;50.364;8.944;2022-12-07T05:27:56;32.58;;;18.38;;
29352;SDS011;16344;50.364;8.944;2022-12-07T05:30:22;31.70;;;17.63;;
29352;SDS011;16344;50.364;8.944;2022-12-07T05:32:48;46.20;;;20.77;;
29352;SDS011;16344;50.364;8.944;2022-12-07T05:35:15;61.72;;;28.02;;
29352;SDS011;16344;50.364;8.944;2022-12-07T05:37:41;64.82;;;28.27;;
29352;SDS011;16344;50.364;8.944;2022-12-07T05:40:06;49.72;;;22.15;;
29352;SDS011;16344;50.364;8.944;2022-12-07T05:42:33;44.03;;;19.83;;
29352;SDS011;16344;50.364;8.944;2022-12-07T05:44:58;32.33;;;17.17;;
29352;SDS011;16344;50.364;8.944;2022-12-07T05:47:24;34.22;;;16.40;;
29352;SDS011;16344;50.364;8.944;2022-12-07T05:49:49;31.83;;;17.10;;
29352;SDS011;16344;50.364;8.944;2022-12-07T05:52:15;32.58;;;18.05;;
29352;SDS011;16344;50.364;8.944;2022-12-07T05:54:41;38.85;;;18.50;;
29352;SDS011;16344;50.364;8.944;2022-12-07T05:57:06;42.90;;;19.80;;
29352;SDS011;16344;50.364;8.944;2022-12-07T05:59:32;37.08;;;18.60;;
29352;SDS011;16344;50.364;8.944;2022-12-07T06:02:06;39.47;;;22.10;;
29352;SDS011;16344;50.364;8.944;2022-12-07T06:04:35;36.45;;;19.42;;
29352;SDS011;16344;50.364;8.944;2022-12-07T06:07:02;37.47;;;19.48;;
29352;SDS011;16344;50.364;8.944;2022-12-07T06:09:29;40.72;;;20.40;;
29352;SDS011;16344;50.364;8.944;2022-12-07T06:11:54;40.00;;;19.83;;
29352;SDS011;16344;50.364;8.944;2022-12-07T06:14:40;39.80;;;18.45;;
29352;SDS011;16344;50.364;8.944;2022-12-07T06:17:06;40.10;;;19.88;;
29352;SDS011;16344;50.364;8.944;2022-12-07T06:19:32;35.15;;;18.83;;
29352;SDS011;16344;50.364;8.944;2022-12-07T06:21:58;35.17;;;18.17;;
29352;SDS011;16344;50.364;8.944;2022-12-07T06:24:24;36.55;;;18.58;;
29352;SDS011;16344;50.364;8.944;2022-12-07T06:26:49;37.22;;;19.67;;
29352;SDS011;16344;50.364;8.944;2022-12-07T06:29:16;42.28;;;20.02;;
29352;SDS011;16344;50.364;8.944;2022-12-07T06:31:42;39.13;;;19.90;;
29352;SDS011;16344;50.364;8.944;2022-12-07T06:34:09;37.50;;;18.70;;
29352;SDS011;16344;50.364;8.944;2022-12-07T06:36:36;35.58;;;17.35;;
29352;SDS011;16344;50.364;8.944;2022-12-07T06:39:02;35.25;;;18.48;;
29352;SDS011;16344;50.364;8.944;2022-12-07T06:41:28;39.38;;;18.55;;
29352;SDS011;16344;50.364;8.944;2022-12-07T06:43:54;40.85;;;18.52;;
29352;SDS011;16344;50.364;8.944;2022-12-07T06:46:20;35.03;;;17.15;;
29352;SDS011;16344;50.364;8.944;2022-12-07T06:48:45;43.80;;;20.08;;
29352;SDS011;16344;50.364;8.944;2022-12-07T06:51:11;34.58;;;19.10;;
29352;SDS011;16344;50.364;8.944;2022-12-07T06:53:41;33.78;;;18.58;;
29352;SDS011;16344;50.364;8.944;2022-12-07T06:56:06;36.88;;;19.42;;
29352;SDS011;16344;50.364;8.944;2022-12-07T06:58:32;36.03;;;19.17;;
29352;SDS011;16344;50.364;8.944;2022-12-07T07:00:58;37.65;;;19.15;;
29352;SDS011;16344;50.364;8.944;2022-12-07T07:03:24;36.92;;;19.35;;
29352;SDS011;16344;50.364;8.944;2022-12-07T07:05:49;43.05;;;19.58;;
29352;SDS011;16344;50.364;8.944;2022-12-07T07:08:15;36.70;;;17.13;;
29352;SDS011;16344;50.364;8.944;2022-12-07T07:10:40;36.40;;;19.45;;
29352;SDS011;16344;50.364;8.944;2022-12-07T07:13:06;36.85;;;18.90;;
29352;SDS011;16344;50.364;8.944;2022-12-07T07:15:32;37.03;;;20.00;;
29352;SDS011;16344;50.364;8.944;2022-12-07T07:17:59;33.33;;;18.83;;
29352;SDS011;16344;50.364;8.944;2022-12-07T07:20:24;35.78;;;19.50;;
29352;SDS011;16344;50.364;8.944;2022-12-07T07:22:50;30.67;;;17.50;;
29352;SDS011;16344;50.364;8.944;2022-12-07T07:25:16;37.40;;;18.05;;
29352;SDS011;16344;50.364;8.944;2022-12-07T07:27:41;32.97;;;18.65;;
29352;SDS011;16344;50.364;8.944;2022-12-07T07:30:07;32.53;;;18.30;;
29352;SDS011;16344;50.364;8.944;2022-12-07T07:32:33;34.25;;;17.52;;
29352;SDS011;16344;50.364;8.944;2022-12-07T07:34:59;38.78;;;19.38;;
29352;SDS011;16344;50.364;8.944;2022-12-07T07:37:25;33.03;;;17.67;;
29352;SDS011;16344;50.364;8.944;2022-12-07T07:39:50;35.70;;;18.60;;
29352;SDS011;16344;50.364;8.944;2022-12-07T07:42:16;37.15;;;19.23;;
29352;SDS011;16344;50.364;8.944;2022-12-07T07:44:42;31.08;;;17.60;;
29352;SDS011;16344;50.364;8.944;2022-12-07T07:47:07;38.50;;;19.85;;
29352;SDS011;16344;50.364;8.944;2022-12-07T07:49:33;34.75;;;19.30;;
29352;SDS011;16344;50.364;8.944;2022-12-07T07:51:58;38.55;;;18.70;;
29352;SDS011;16344;50.364;8.944;2022-12-07T07:54:24;30.75;;;17.48;;
29352;SDS011;16344;50.364;8.944;2022-12-07T07:56:49;32.63;;;17.23;;
29352;SDS011;16344;50.364;8.944;2022-12-07T07:59:15;29.85;;;15.48;;
29352;SDS011;16344;50.364;8.944;2022-12-07T08:01:40;30.88;;;16.92;;
29352;SDS011;16344;50.364;8.944;2022-12-07T08:04:06;26.10;;;15.50;;
29352;SDS011;16344;50.364;8.944;2022-12-07T08:06:32;31.70;;;16.80;;
29352;SDS011;16344;50.364;8.944;2022-12-07T08:08:57;28.05;;;15.38;;
29352;SDS011;16344;50.364;8.944;2022-12-07T08:11:23;30.33;;;15.20;;
29352;SDS011;16344;50.364;8.944;2022-12-07T08:13:49;28.58;;;14.52;;
29352;SDS011;16344;50.364;8.944;2022-12-07T08:16:15;25.90;;;14.45;;
29352;SDS011;16344;50.364;8.944;2022-12-07T08:18:41;33.70;;;13.65;;
29352;SDS011;16344;50.364;8.944;2022-12-07T08:21:12;22.85;;;13.30;;
29352;SDS011;16344;50.364;8.944;2022-12-07T08:23:39;25.98;;;15.63;;
29352;SDS011;16344;50.364;8.944;2022-12-07T08:26:05;26.20;;;15.13;;
29352;SDS011;16344;50.364;8.944;2022-12-07T08:28:32;25.05;;;14.60;;
29352;SDS011;16344;50.364;8.944;2022-12-07T08:30:58;26.95;;;16.13;;
29352;SDS011;16344;50.364;8.944;2022-12-07T08:33:25;23.58;;;14.10;;
29352;SDS011;16344;50.364;8.944;2022-12-07T08:35:51;22.20;;;13.98;;
29352;SDS011;16344;50.364;8.944;2022-12-07T08:38:16;39.33;;;13.70;;
29352;SDS011;16344;50.364;8.944;2022-12-07T08:40:42;21.20;;;12.85;;
29352;SDS011;16344;50.364;8.944;2022-12-07T08:43:07;23.08;;;13.05;;
29352;SDS011;16344;50.364;8.944;2022-12-07T08:45:33;26.10;;;13.88;;
29352;SDS011;16344;50.364;8.944;2022-12-07T08:48:08;24.92;;;13.85;;
29352;SDS011;16344;50.364;8.944;2022-12-07T08:50:37;25.55;;;14.02;;
29352;SDS011;16344;50.364;8.944;2022-12-07T08:53:03;20.55;;;12.88;;
29352;SDS011;16344;50.364;8.944;2022-12-07T08:55:30;36.42;;;15.18;;
29352;SDS011;16344;50.364;8.944;2022-12-07T08:57:58;28.17;;;14.88;;
29352;SDS011;16344;50.364;8.944;2022-12-07T09:00:25;27.20;;;13.82;;
29352;SDS011;16344;50.364;8.944;2022-12-07T09:02:51;35.40;;;14.48;;
29352;SDS011;16344;50.364;8.944;2022-12-07T09:05:18;22.40;;;13.20;;
29352;SDS011;16344;50.364;8.944;2022-12-07T09:07:44;22.10;;;12.65;;
29352;SDS011;16344;50.364;8.944;2022-12-07T09:10:14;24.13;;;12.60;;
29352;SDS011;16344;50.364;8.944;2022-12-07T09:12:39;21.42;;;12.15;;
29352;SDS011;16344;50.364;8.944;2022-12-07T09:15:05;21.45;;;11.88;;
29352;SDS011;16344;50.364;8.944;2022-12-07T09:17:33;22.50;;;11.90;;
29352;SDS011;16344;50.364;8.944;2022-12-07T09:19:59;16.10;;;10.57;;
29352;SDS011;16344;50.364;8.944;2022-12-07T09:22:28;21.85;;;10.98;;
29352;SDS011;16344;50.364;8.944;2022-12-07T09:24:55;22.17;;;12.60;;
29352;SDS011;16344;50.364;8.944;2022-12-07T09:27:21;22.75;;;10.70;;
29352;SDS011;16344;50.364;8.944;2022-12-07T09:29:47;19.55;;;10.70;;
29352;SDS011;16344;50.364;8.944;2022-12-07T09:32:12;20.75;;;10.68;;
29352;SDS011;16344;50.364;8.944;2022-12-07T09:34:38;22.23;;;11.20;;
29352;SDS011;16344;50.364;8.944;2022-12-07T09:37:03;21.23;;;11.70;;
29352;SDS011;16344;50.364;8.944;2022-12-07T09:39:29;20.42;;;10.63;;
29352;SDS011;16344;50.364;8.944;2022-12-07T09:41:56;24.25;;;11.43;;
29352;SDS011;16344;50.364;8.944;2022-12-07T09:44:25;21.33;;;9.80;;
29352;SDS011;16344;50.364;8.944;2022-12-07T09:46:53;22.80;;;10.38;;
29352;SDS011;16344;50.364;8.944;2022-12-07T09:49:20;23.20;;;11.57;;
29352;SDS011;16344;50.364;8.944;2022-12-07T09:52:02;15.27;;;8.38;;
29352;SDS011;16344;50.364;8.944;2022-12-07T09:54:49;15.30;;;8.35;;
29352;SDS011;16344;50.364;8.944;2022-12-07T09:57:15;12.57;;;8.23;;
29352;SDS011;16344;50.364;8.944;2022-12-07T09:59:41;18.50;;;8.52;;
29352;SDS011;16344;50.364;8.944;2022-12-07T10:02:24;19.92;;;8.82;;
29352;SDS011;16344;50.364;8.944;2022-12-07T10:04:50;14.20;;;9.18;;
29352;SDS011;16344;50.364;8.944;2022-12-07T10:07:15;17.38;;;9.98;;
29352;SDS011;16344;50.364;8.944;2022-12-07T10:09:41;16.50;;;9.32;;
29352;SDS011;16344;50.364;8.944;2022-12-07T10:12:08;20.70;;;9.48;;
29352;SDS011;16344;50.364;8.944;2022-12-07T10:14:51;27.15;;;10.82;;
29352;SDS011;16344;50.364;8.944;2022-12-07T10:17:38;21.40;;;9.60;;
29352;SDS011;16344;50.364;8.944;2022-12-07T10:20:22;13.35;;;8.70;;
29352;SDS011;16344;50.364;8.944;2022-12-07T10:22:57;17.70;;;8.65;;
29352;SDS011;16344;50.364;8.944;2022-12-07T10:25:25;17.38;;;8.00;;
29352;SDS011;16344;50.364;8.944;2022-12-07T10:30:32;13.00;;;5.07;;
29352;SDS011;16344;50.364;8.944;2022-12-07T10:32:58;11.88;;;4.80;;
29352;SDS011;16344;50.364;8.944;2022-12-07T10:35:28;11.70;;;4.72;;
29352;SDS011;16344;50.364;8.944;2022-12-07T10:37:56;13.30;;;5.20;;
29352;SDS011;16344;50.364;8.944;2022-12-07T10:45:27;18.13;;;4.68;;
29352;SDS011;16344;50.364;8.944;2022-12-07T10:48:06;18.77;;;5.38;;
29352;SDS011;16344;50.364;8.944;2022-12-07T10:59:39;16.05;;;5.40;;
29352;SDS011;16344;50.364;8.944;2022-12-07T11:02:23;13.77;;;5.18;;
29352;SDS011;16344;50.364;8.944;2022-12-07T11:05:09;14.93;;;5.50;;
29352;SDS011;16344;50.364;8.944;2022-12-07T11:10:26;23.25;;;6.35;;
29352;SDS011;16344;50.364;8.944;2022-12-07T11:19:15;14.23;;;4.90;;
29352;SDS011;16344;50.364;8.944;2022-12-07T11:21:58;12.00;;;5.60;;
29352;SDS011;16344;50.364;8.944;2022-12-07T11:24:41;12.52;;;5.85;;
29352;SDS011;16344;50.364;8.944;2022-12-07T11:29:55;15.90;;;6.20;;
29352;SDS011;16344;50.364;8.944;2022-12-07T11:35:27;13.50;;;6.75;;
29352;SDS011;16344;50.364;8.944;2022-12-07T11:38:03;14.25;;;6.97;;
29352;SDS011;16344;50.364;8.944;2022-12-07T11:40:40;18.52;;;6.85;;
29352;SDS011;16344;50.364;8.944;2022-12-07T11:43:15;16.55;;;6.88;;
29352;SDS011;16344;50.364;8.944;2022-12-07T11:45:47;18.35;;;7.07;;
29352;SDS011;16344;50.364;8.944;2022-12-07T11:51:20;17.33;;;7.03;;
29352;SDS011;16344;50.364;8.944;2022-12-07T11:53:57;17.63;;;6.70;;
29352;SDS011;16344;50.364;8.944;2022-12-07T11:56:28;12.15;;;5.45;;
29352;SDS011;16344;50.364;8.944;2022-12-07T12:19:40;19.63;;;6.40;;
29352;SDS011;16344;50.364;8.944;2022-12-07T12:24:42;12.45;;;5.55;;
29352;SDS011;16344;50.364;8.944;2022-12-07T12:27:23;14.23;;;6.30;;
29352;SDS011;16344;50.364;8.944;2022-12-07T12:29:53;13.20;;;5.32;;
29352;SDS011;16344;50.364;8.944;2022-12-07T12:32:21;19.55;;;4.68;;
29352;SDS011;16344;50.364;8.944;2022-12-07T12:35:00;16.90;;;3.88;;
29352;SDS011;16344;50.364;8.944;2022-12-07T12:42:49;18.42;;;5.38;;
29352;SDS011;16344;50.364;8.944;2022-12-07T12:50:21;11.02;;;4.25;;
29352;SDS011;16344;50.364;8.944;2022-12-07T12:52:50;13.57;;;4.28;;
29352;SDS011;16344;50.364;8.944;2022-12-07T13:00:42;10.32;;;4.68;;
29352;SDS011;16344;50.364;8.944;2022-12-07T13:03:21;9.18;;;3.70;;
29352;SDS011;16344;50.364;8.944;2022-12-07T13:06:12;13.68;;;3.88;;
29352;SDS011;16344;50.364;8.944;2022-12-07T13:08:48;26.45;;;4.25;;
29352;SDS011;16344;50.364;8.944;2022-12-07T13:17:07;12.43;;;3.28;;
29352;SDS011;16344;50.364;8.944;2022-12-07T13:24:57;15.57;;;5.25;;
29352;SDS011;16344;50.364;8.944;2022-12-07T13:27:46;23.08;;;3.75;;
29352;SDS011;16344;50.364;8.944;2022-12-07T13:30:21;23.23;;;4.07;;
29352;SDS011;16344;50.364;8.944;2022-12-07T13:32:54;10.73;;;3.00;;
29352;SDS011;16344;50.364;8.944;2022-12-07T13:35:31;12.77;;;3.08;;
29352;SDS011;16344;50.364;8.944;2022-12-07T13:37:58;11.93;;;3.33;;
29352;SDS011;16344;50.364;8.944;2022-12-07T13:40:24;13.07;;;3.50;;
29352;SDS011;16344;50.364;8.944;2022-12-07T13:42:57;13.05;;;3.78;;
29352;SDS011;16344;50.364;8.944;2022-12-07T13:45:38;12.68;;;2.85;;
29352;SDS011;16344;50.364;8.944;2022-12-07T13:48:18;11.90;;;3.63;;
29352;SDS011;16344;50.364;8.944;2022-12-07T13:50:53;14.63;;;3.67;;
29352;SDS011;16344;50.364;8.944;2022-12-07T13:53:19;15.32;;;3.63;;
29352;SDS011;16344;50.364;8.944;2022-12-07T13:55:45;31.98;;;5.07;;
29352;SDS011;16344;50.364;8.944;2022-12-07T13:58:12;18.55;;;4.47;;
29352;SDS011;16344;50.364;8.944;2022-12-07T14:00:39;18.73;;;3.97;;
29352;SDS011;16344;50.364;8.944;2022-12-07T14:05:38;13.25;;;4.10;;
29352;SDS011;16344;50.364;8.944;2022-12-07T14:13:20;13.20;;;5.22;;
29352;SDS011;16344;50.364;8.944;2022-12-07T14:15:49;13.73;;;4.55;;
29352;SDS011;16344;50.364;8.944;2022-12-07T14:21:03;23.42;;;6.00;;
29352;SDS011;16344;50.364;8.944;2022-12-07T14:23:28;19.58;;;5.20;;
29352;SDS011;16344;50.364;8.944;2022-12-07T14:26:03;14.32;;;4.70;;
29352;SDS011;16344;50.364;8.944;2022-12-07T14:28:36;21.38;;;5.60;;
29352;SDS011;16344;50.364;8.944;2022-12-07T14:31:03;16.65;;;5.13;;
29352;SDS011;16344;50.364;8.944;2022-12-07T14:33:33;18.30;;;5.07;;
29352;SDS011;16344;50.364;8.944;2022-12-07T14:35:59;20.02;;;4.93;;
29352;SDS011;16344;50.364;8.944;2022-12-07T14:38:25;23.65;;;5.28;;
29352;SDS011;16344;50.364;8.944;2022-12-07T14:40:54;15.48;;;7.43;;
29352;SDS011;16344;50.364;8.944;2022-12-07T14:43:40;17.77;;;7.35;;
29352;SDS011;16344;50.364;8.944;2022-12-07T14:46:06;20.80;;;8.18;;
29352;SDS011;16344;50.364;8.944;2022-12-07T14:48:31;29.63;;;10.52;;
29352;SDS011;16344;50.364;8.944;2022-12-07T14:50:57;21.38;;;7.05;;
29352;SDS011;16344;50.364;8.944;2022-12-07T14:53:24;20.73;;;7.15;;
29352;SDS011;16344;50.364;8.944;2022-12-07T14:55:56;14.02;;;5.07;;
29352;SDS011;16344;50.364;8.944;2022-12-07T14:58:21;13.75;;;5.40;;
29352;SDS011;16344;50.364;8.944;2022-12-07T15:00:47;15.23;;;5.53;;
29352;SDS011;16344;50.364;8.944;2022-12-07T15:03:13;13.55;;;5.43;;
29352;SDS011;16344;50.364;8.944;2022-12-07T15:05:39;18.52;;;5.43;;
29352;SDS011;16344;50.364;8.944;2022-12-07T15:08:05;9.50;;;4.07;;
29352;SDS011;16344;50.364;8.944;2022-12-07T15:10:33;11.55;;;5.80;;
29352;SDS011;16344;50.364;8.944;2022-12-07T15:13:03;20.42;;;5.35;;
29352;SDS011;16344;50.364;8.944;2022-12-07T15:15:49;14.43;;;5.45;;
29352;SDS011;16344;50.364;8.944;2022-12-07T15:18:16;13.88;;;5.57;;
29352;SDS011;16344;50.364;8.944;2022-12-07T15:20:42;16.88;;;5.32;;
29352;SDS011;16344;50.364;8.944;2022-12-07T15:23:08;16.13;;;6.72;;
29352;SDS011;16344;50.364;8.944;2022-12-07T15:25:34;14.32;;;5.28;;
29352;SDS011;16344;50.364;8.944;2022-12-07T15:28:00;10.10;;;5.70;;
29352;SDS011;16344;50.364;8.944;2022-12-07T15:30:25;16.25;;;6.25;;
29352;SDS011;16344;50.364;8.944;2022-12-07T15:32:52;19.10;;;6.72;;
29352;SDS011;16344;50.364;8.944;2022-12-07T15:35:18;23.05;;;8.23;;
29352;SDS011;16344;50.364;8.944;2022-12-07T15:37:44;24.75;;;9.07;;
29352;SDS011;16344;50.364;8.944;2022-12-07T15:40:10;28.02;;;10.75;;
29352;SDS011;16344;50.364;8.944;2022-12-07T15:42:36;28.58;;;9.65;;
29352;SDS011;16344;50.364;8.944;2022-12-07T15:45:02;25.00;;;7.05;;
29352;SDS011;16344;50.364;8.944;2022-12-07T15:47:28;19.05;;;8.30;;
29352;SDS011;16344;50.364;8.944;2022-12-07T15:49:55;40.88;;;12.35;;
29352;SDS011;16344;50.364;8.944;2022-12-07T15:52:21;25.75;;;7.25;;
29352;SDS011;16344;50.364;8.944;2022-12-07T15:54:46;21.80;;;7.45;;
29352;SDS011;16344;50.364;8.944;2022-12-07T15:57:12;17.42;;;7.45;;
29352;SDS011;16344;50.364;8.944;2022-12-07T15:59:38;15.45;;;6.30;;
29352;SDS011;16344;50.364;8.944;2022-12-07T16:02:03;20.42;;;4.63;;
29352;SDS011;16344;50.364;8.944;2022-12-07T16:04:29;14.93;;;5.20;;
29352;SDS011;16344;50.364;8.944;2022-12-07T16:06:55;18.05;;;4.50;;
29352;SDS011;16344;50.364;8.944;2022-12-07T16:09:21;12.68;;;4.95;;
29352;SDS011;16344;50.364;8.944;2022-12-07T16:11:47;15.60;;;4.85;;
29352;SDS011;16344;50.364;8.944;2022-12-07T16:14:15;16.67;;;4.97;;
29352;SDS011;16344;50.364;8.944;2022-12-07T16:16:40;14.07;;;3.88;;
29352;SDS011;16344;50.364;8.944;2022-12-07T16:19:06;20.30;;;5.35;;
29352;SDS011;16344;50.364;8.944;2022-12-07T16:21:33;11.38;;;5.47;;
29352;SDS011;16344;50.364;8.944;2022-12-07T16:23:59;21.13;;;5.82;;
29352;SDS011;16344;50.364;8.944;2022-12-07T16:26:24;20.15;;;6.22;;
29352;SDS011;16344;50.364;8.944;2022-12-07T16:28:50;20.33;;;6.75;;
29352;SDS011;16344;50.364;8.944;2022-12-07T16:31:19;11.57;;;4.15;;
29352;SDS011;16344;50.364;8.944;2022-12-07T16:33:46;17.13;;;4.57;;